createdAt,value
2023-10-04T00:00:29.437Z,100048.72
2023-10-04T00:02:31.958Z,100050.00
2023-10-04T00:04:36.007Z,100046.09
2023-10-04T00:06:38.720Z,100044.63
2023-10-04T00:08:41.256Z,100035.78
2023-10-04T00:10:43.549Z,100037.81
2023-10-04T00:12:47.677Z,100037.63
2023-10-04T00:14:50.575Z,100033.94
2023-10-04T00:16:54.654Z,100030.03
2023-10-04T00:18:57.978Z,100037.84
2023-10-04T00:21:00.461Z,100045.00
2023-10-04T00:23:06.148Z,100043.38
2023-10-04T00:25:18.417Z,100032.56
2023-10-04T00:27:21.488Z,100035.19
2023-10-04T00:29:23.847Z,100037.94
2023-10-04T00:31:26.318Z,100033.47
2023-10-04T00:33:30.527Z,100030.53
2023-10-04T00:35:33.270Z,100023.34
2023-10-04T00:37:35.939Z,100024.59
2023-10-04T00:39:38.958Z,100022.00
2023-10-04T00:41:42.187Z,100031.81
2023-10-04T00:43:51.230Z,100025.47
2023-10-04T00:45:55.036Z,100030.16
2023-10-04T00:48:00.394Z,100025.88
2023-10-04T00:50:16.095Z,100024.53
2023-10-04T00:52:20.534Z,100020.81
2023-10-04T00:54:23.420Z,100026.47
2023-10-04T00:56:26.529Z,100019.66
2023-10-04T00:58:29.629Z,100028.97
2023-10-04T01:00:32.139Z,100035.84
2023-10-04T01:02:35.420Z,100029.72
2023-10-04T01:04:38.067Z,100022.16
2023-10-04T01:06:41.655Z,100017.75
2023-10-04T01:08:44.146Z,100023.31
2023-10-04T01:10:48.375Z,100024.22
2023-10-04T01:12:50.999Z,100021.91
2023-10-04T01:14:55.346Z,100021.84
2023-10-04T01:16:58.316Z,100026.44
2023-10-04T01:19:00.674Z,100031.66
2023-10-04T01:21:03.255Z,100029.81
2023-10-04T01:23:07.603Z,100041.00
2023-10-04T01:25:12.878Z,100038.16
2023-10-04T01:27:15.363Z,100040.59
2023-10-04T01:29:19.910Z,100042.66
2023-10-04T01:31:22.454Z,100042.81
2023-10-04T01:33:25.191Z,100045.97
2023-10-04T01:35:29.021Z,100050.50
2023-10-04T01:37:33.253Z,100052.28
2023-10-04T01:39:38.179Z,100060.22
2023-10-04T01:41:40.907Z,100056.53
2023-10-04T01:43:43.326Z,100054.00
2023-10-04T01:45:54.142Z,100067.53
2023-10-04T01:47:56.928Z,100058.19
2023-10-04T01:49:59.476Z,100064.63
2023-10-04T01:52:03.780Z,100058.97
2023-10-04T01:54:06.564Z,100062.22
2023-10-04T01:56:09.305Z,100067.38
2023-10-04T01:58:12.227Z,100077.06
2023-10-04T02:00:19.046Z,100072.31
2023-10-04T02:02:25.002Z,100080.38
2023-10-04T02:04:29.664Z,100069.50
2023-10-04T02:06:33.152Z,100073.38
2023-10-04T02:08:35.889Z,100072.50
2023-10-04T02:10:38.407Z,100066.19
2023-10-04T02:12:44.798Z,100073.28
2023-10-04T02:14:48.258Z,100066.59
2023-10-04T02:16:51.783Z,100067.06
2023-10-04T02:18:54.452Z,100068.31
2023-10-04T02:20:56.951Z,100074.31
2023-10-04T02:23:01.298Z,100076.88
2023-10-04T02:25:11.578Z,100082.31
2023-10-04T02:27:18.184Z,100071.97
2023-10-04T02:29:20.617Z,100074.03
2023-10-04T02:31:24.273Z,100065.47
2023-10-04T02:33:34.057Z,100067.47
2023-10-04T02:35:42.726Z,100069.38
2023-10-04T02:37:46.347Z,100069.38
2023-10-04T02:39:49.215Z,100063.22
2023-10-04T02:41:51.756Z,100069.31
2023-10-04T02:43:55.900Z,100065.63
2023-10-04T02:45:58.769Z,100065.59
2023-10-04T02:48:01.411Z,100056.78
2023-10-04T02:50:05.392Z,100050.19
2023-10-04T02:52:12.797Z,100051.50
2023-10-04T02:54:17.657Z,100052.63
2023-10-04T02:56:22.429Z,100055.00
2023-10-04T02:58:26.291Z,100053.25
2023-10-04T03:00:29.152Z,100068.31
2023-10-04T03:02:32.562Z,100060.25
2023-10-04T03:04:35.576Z,100060.97
2023-10-04T03:06:39.754Z,100061.13
2023-10-04T03:08:42.540Z,100067.06
2023-10-04T03:10:46.657Z,100061.16
2023-10-04T03:12:53.252Z,100066.69
2023-10-04T03:14:57.946Z,100067.28
2023-10-04T03:17:02.011Z,100074.38
2023-10-04T03:19:05.534Z,100070.00
2023-10-04T03:21:22.036Z,100067.22
2023-10-04T03:23:25.951Z,100071.50
2023-10-04T03:25:29.769Z,100062.16
2023-10-04T03:27:35.722Z,100063.94
2023-10-04T03:29:38.467Z,100062.75
2023-10-04T03:31:41.030Z,100056.66
2023-10-04T03:33:47.709Z,100055.00
2023-10-04T03:35:55.112Z,100055.94
2023-10-04T03:38:03.163Z,100055.47
2023-10-04T03:40:16.534Z,100062.75
2023-10-04T03:42:19.151Z,100065.28
2023-10-04T03:44:21.810Z,100067.06
2023-10-04T03:46:24.315Z,100065.13
2023-10-04T03:48:30.880Z,100061.09
2023-10-04T03:50:39.622Z,100061.97
2023-10-04T03:52:43.965Z,100055.00
2023-10-04T03:54:47.544Z,100061.97
2023-10-04T03:56:51.045Z,100058.31
2023-10-04T03:58:53.577Z,100053.47
2023-10-04T04:00:56.370Z,100057.44
2023-10-04T04:03:00.817Z,100058.66
2023-10-04T04:05:06.823Z,100054.53
2023-10-04T04:07:09.688Z,100053.75
2023-10-04T04:09:12.308Z,100042.47
2023-10-04T04:11:15.853Z,100052.34
2023-10-04T04:13:20.377Z,100049.56
2023-10-04T04:15:25.221Z,100045.78
2023-10-04T04:17:28.531Z,100042.34
2023-10-04T04:19:31.259Z,100046.63
2023-10-04T04:21:35.059Z,100043.13
2023-10-04T04:23:38.645Z,100045.38
2023-10-04T04:25:42.199Z,100045.50
2023-10-04T04:27:48.051Z,100051.44
2023-10-04T04:29:56.206Z,100052.16
2023-10-04T04:32:00.690Z,100040.56
2023-10-04T04:34:05.311Z,100048.44
2023-10-04T04:36:20.819Z,100048.72
2023-10-04T04:38:23.316Z,100055.06
2023-10-04T04:40:31.840Z,100052.22
2023-10-04T04:42:37.049Z,100050.22
2023-10-04T04:44:44.008Z,100044.66
2023-10-04T04:46:49.295Z,100047.97
2023-10-04T04:48:56.469Z,100035.84
2023-10-04T04:51:08.758Z,100031.19
2023-10-04T04:53:16.092Z,100033.00
2023-10-04T04:55:18.451Z,100020.31
2023-10-04T04:57:21.009Z,100032.84
2023-10-04T04:59:25.855Z,100039.16
2023-10-04T05:01:35.360Z,100025.44
2023-10-04T05:03:43.349Z,100035.44
2023-10-04T05:05:46.371Z,100042.06
2023-10-04T05:07:49.714Z,100029.13
2023-10-04T05:09:52.185Z,100039.22
2023-10-04T05:11:55.298Z,100040.59
2023-10-04T05:13:58.431Z,100045.97
2023-10-04T05:16:01.595Z,100051.22
2023-10-04T05:18:16.880Z,100048.03
2023-10-04T05:20:21.527Z,100051.53
2023-10-04T05:22:24.035Z,100053.06
2023-10-04T05:24:26.504Z,100065.03
2023-10-04T05:26:30.219Z,100065.91
2023-10-04T05:28:33.055Z,100070.47
2023-10-04T05:30:35.708Z,100069.31
2023-10-04T05:32:38.257Z,100072.53
2023-10-04T05:34:40.659Z,100078.34
2023-10-04T05:36:43.236Z,100081.97
2023-10-04T05:38:45.716Z,100095.00
2023-10-04T05:40:48.528Z,100108.13
2023-10-04T05:42:51.449Z,100108.72
2023-10-04T05:44:54.034Z,100119.53
2023-10-04T05:46:56.551Z,100122.25
2023-10-04T05:48:58.951Z,100127.88
2023-10-04T05:51:01.742Z,100131.09
2023-10-04T05:53:11.293Z,100138.00
2023-10-04T05:55:14.935Z,100141.31
2023-10-04T05:57:17.666Z,100146.25
2023-10-04T05:59:20.298Z,100156.97
2023-10-04T06:01:24.013Z,100157.25
2023-10-04T06:03:28.078Z,100160.13
2023-10-04T06:05:34.572Z,100161.59
2023-10-04T06:07:37.090Z,100164.00
2023-10-04T06:09:43.823Z,100166.16
2023-10-04T06:11:46.264Z,100172.88
2023-10-04T06:13:49.468Z,100170.78
2023-10-04T06:15:55.943Z,100183.72
2023-10-04T06:17:59.405Z,100165.00
2023-10-04T06:20:01.855Z,100166.53
2023-10-04T06:22:04.322Z,100168.41
2023-10-04T06:24:06.856Z,100169.94
2023-10-04T06:26:09.347Z,100180.75
2023-10-04T06:28:12.578Z,100179.81
2023-10-04T06:30:17.680Z,100172.53
2023-10-04T06:32:20.415Z,100181.59
2023-10-04T06:34:23.740Z,100185.97
2023-10-04T06:36:26.727Z,100187.06
2023-10-04T06:38:29.264Z,100189.22
2023-10-04T06:40:35.466Z,100196.94
2023-10-04T06:42:38.104Z,100193.34
2023-10-04T06:44:40.571Z,100195.97
2023-10-04T06:46:43.133Z,100190.63
2023-10-04T06:48:46.825Z,100197.84
2023-10-04T06:50:51.656Z,100182.47
2023-10-04T06:52:54.312Z,100184.66
2023-10-04T06:54:57.141Z,100188.63
2023-10-04T06:57:00.808Z,100185.75
2023-10-04T06:59:03.542Z,100195.81
2023-10-04T07:01:07.252Z,100190.69
2023-10-04T07:03:10.374Z,100194.16
2023-10-04T07:05:21.096Z,100190.47
2023-10-04T07:07:23.418Z,100199.53
2023-10-04T07:09:29.230Z,100194.13
2023-10-04T07:11:34.979Z,100203.25
2023-10-04T07:13:38.336Z,100209.47
2023-10-04T07:15:41.589Z,100213.50
2023-10-04T07:17:44.156Z,100210.88
2023-10-04T07:19:46.848Z,100211.56
2023-10-04T07:21:50.786Z,100208.91
2023-10-04T07:23:53.294Z,100213.34
2023-10-04T07:25:55.938Z,100211.44
2023-10-04T07:28:04.241Z,100225.41
2023-10-04T07:30:08.844Z,100220.13
2023-10-04T07:32:11.497Z,100218.66
2023-10-04T07:34:14.040Z,100218.94
2023-10-04T07:36:17.318Z,100225.69
2023-10-04T07:38:19.856Z,100220.63
2023-10-04T07:40:24.220Z,100233.19
2023-10-04T07:42:27.811Z,100229.34
2023-10-04T07:44:33.312Z,100228.09
2023-10-04T07:46:35.998Z,100234.09
2023-10-04T07:48:38.672Z,100231.75
2023-10-04T07:50:41.277Z,100240.88
2023-10-04T07:52:45.807Z,100245.53
2023-10-04T07:54:48.500Z,100247.78
2023-10-04T07:56:51.058Z,100243.94
2023-10-04T07:58:53.654Z,100250.78
2023-10-04T08:00:56.310Z,100244.06
2023-10-04T08:03:02.392Z,100236.09
2023-10-04T08:05:09.471Z,100241.19
2023-10-04T08:07:13.974Z,100244.31
2023-10-04T08:09:17.213Z,100246.81
2023-10-04T08:11:19.789Z,100247.81
2023-10-04T08:13:22.132Z,100240.56
2023-10-04T08:15:29.077Z,100247.66
2023-10-04T08:17:32.046Z,100250.19
2023-10-04T08:19:34.990Z,100251.91
2023-10-04T08:21:41.727Z,100238.47
2023-10-04T08:23:46.188Z,100244.56
2023-10-04T08:25:52.353Z,100247.94
2023-10-04T08:27:55.363Z,100244.81
2023-10-04T08:29:57.960Z,100240.22
2023-10-04T08:32:00.521Z,100239.22
2023-10-04T08:34:03.492Z,100243.06
2023-10-04T08:36:11.769Z,100242.72
2023-10-04T08:38:14.446Z,100249.16
2023-10-04T08:40:20.826Z,100238.84
2023-10-04T08:42:25.625Z,100243.44
2023-10-04T08:44:28.431Z,100239.44
2023-10-04T08:46:33.613Z,100241.72
2023-10-04T08:48:36.571Z,100247.31
2023-10-04T08:50:43.125Z,100246.56
2023-10-04T08:52:47.830Z,100249.94
2023-10-04T08:54:59.584Z,100239.59
2023-10-04T08:57:15.507Z,100249.16
2023-10-04T08:59:19.268Z,100247.44
2023-10-04T09:01:23.972Z,100251.81
2023-10-04T09:03:28.051Z,100250.69
2023-10-04T09:05:33.013Z,100252.41
2023-10-04T09:07:35.507Z,100252.28
2023-10-04T09:09:44.054Z,100252.19
2023-10-04T09:11:47.350Z,100259.50
2023-10-04T09:13:52.184Z,100259.88
2023-10-04T09:15:54.813Z,100251.13
2023-10-04T09:17:58.971Z,100257.25
2023-10-04T09:20:13.036Z,100260.13
2023-10-04T09:22:19.261Z,100248.50
2023-10-04T09:24:22.542Z,100255.47
2023-10-04T09:26:26.348Z,100260.81
2023-10-04T09:28:42.571Z,100259.09
2023-10-04T09:30:45.873Z,100261.47
2023-10-04T09:32:48.491Z,100257.69
2023-10-04T09:34:59.394Z,100259.69
2023-10-04T09:37:02.196Z,100262.22
2023-10-04T09:39:09.543Z,100262.44
2023-10-04T09:41:12.300Z,100265.28
2023-10-04T09:43:16.304Z,100262.06
2023-10-04T09:45:22.783Z,100265.97
2023-10-04T09:47:39.420Z,100262.53
2023-10-04T09:49:50.222Z,100253.84
2023-10-04T09:51:55.202Z,100258.03
2023-10-04T09:53:57.548Z,100251.16
2023-10-04T09:56:05.521Z,100249.31
2023-10-04T09:58:12.805Z,100246.28
2023-10-04T10:00:19.319Z,100235.91
2023-10-04T10:02:23.213Z,100238.84
2023-10-04T10:04:28.277Z,100246.69
2023-10-04T10:06:35.267Z,100251.06
2023-10-04T10:08:43.978Z,100246.19
2023-10-04T10:10:47.612Z,100248.78
2023-10-04T10:12:53.344Z,100246.03
2023-10-04T10:14:56.662Z,100252.16
2023-10-04T10:16:59.661Z,100248.72
2023-10-04T10:19:04.530Z,100252.81
2023-10-04T10:21:09.862Z,100237.94
2023-10-04T10:23:15.193Z,100246.66
2023-10-04T10:25:17.966Z,100240.00
2023-10-04T10:27:21.424Z,100245.56
2023-10-04T10:29:30.882Z,100245.06
2023-10-04T10:31:36.516Z,100242.78
2023-10-04T10:33:39.546Z,100231.09
2023-10-04T10:35:50.814Z,100234.97
2023-10-04T10:37:53.384Z,100236.31
2023-10-04T10:39:58.457Z,100233.28
2023-10-04T10:42:01.044Z,100239.22
2023-10-04T10:44:22.384Z,100233.00
2023-10-04T10:46:30.794Z,100238.50
2023-10-04T10:48:36.257Z,100228.09
2023-10-04T10:50:42.506Z,100225.06
2023-10-04T10:52:45.126Z,100228.41
2023-10-04T10:54:48.427Z,100236.41
2023-10-04T10:56:51.252Z,100235.25
2023-10-04T10:58:53.761Z,100233.66
2023-10-04T11:00:58.169Z,100241.69
2023-10-04T11:03:02.203Z,100235.34
2023-10-04T11:05:08.123Z,100238.09
2023-10-04T11:07:13.290Z,100235.78
2023-10-04T11:09:28.119Z,100238.25
2023-10-04T11:11:38.961Z,100238.25
2023-10-04T11:13:45.327Z,100238.41
2023-10-04T11:15:48.337Z,100235.25
2023-10-04T11:17:52.547Z,100240.31
2023-10-04T11:19:55.537Z,100238.59
2023-10-04T11:21:58.880Z,100238.13
2023-10-04T11:24:05.583Z,100238.00
2023-10-04T11:26:10.525Z,100238.94
2023-10-04T11:28:13.308Z,100238.94
2023-10-04T11:30:35.569Z,100238.09
2023-10-04T11:32:48.067Z,100237.34
2023-10-04T11:34:50.786Z,100243.88
2023-10-04T11:37:00.717Z,100240.78
2023-10-04T11:39:10.774Z,100243.97
2023-10-04T11:41:14.910Z,100243.50
2023-10-04T11:43:18.038Z,100243.75
2023-10-04T11:45:25.532Z,100253.44
2023-10-04T11:47:30.193Z,100247.06
2023-10-04T11:49:34.611Z,100249.69
2023-10-04T11:51:40.973Z,100254.72
2023-10-04T11:53:47.450Z,100253.13
2023-10-04T11:55:58.859Z,100256.84
2023-10-04T11:58:06.286Z,100260.47
2023-10-04T12:00:24.509Z,100254.38
2023-10-04T12:02:27.379Z,100255.50
2023-10-04T12:04:31.208Z,100248.97
2023-10-04T12:06:36.336Z,100245.84
2023-10-04T12:08:41.374Z,100248.25
2023-10-04T12:10:47.498Z,100249.78
2023-10-04T12:12:50.150Z,100258.50
2023-10-04T12:14:52.754Z,100258.75
2023-10-04T12:16:55.306Z,100254.38
2023-10-04T12:18:58.046Z,100254.25
2023-10-04T12:21:00.519Z,100259.75
2023-10-04T12:23:03.070Z,100254.00
2023-10-04T12:25:06.403Z,100254.56
2023-10-04T12:27:16.128Z,100248.78
2023-10-04T12:29:18.880Z,100253.41
2023-10-04T12:31:21.563Z,100259.03
2023-10-04T12:33:25.453Z,100253.53
2023-10-04T12:35:28.694Z,100260.78
2023-10-04T12:37:31.352Z,100253.53
2023-10-04T12:39:34.151Z,100248.94
2023-10-04T12:41:38.533Z,100252.16
2023-10-04T12:43:41.039Z,100247.50
2023-10-04T12:45:45.416Z,100250.13
2023-10-04T12:47:48.700Z,100253.38
2023-10-04T12:49:51.255Z,100260.88
2023-10-04T12:51:54.228Z,100248.97
2023-10-04T12:53:57.066Z,100247.25
2023-10-04T12:55:59.603Z,100241.09
2023-10-04T12:58:02.115Z,100238.94
2023-10-04T13:00:15.284Z,100236.94
2023-10-04T13:02:17.634Z,100240.81
2023-10-04T13:04:20.285Z,100242.72
2023-10-04T13:06:23.070Z,100239.09
2023-10-04T13:08:27.044Z,100239.84
2023-10-04T13:10:29.637Z,100241.97
2023-10-04T13:12:32.400Z,100243.97
2023-10-04T13:14:34.799Z,100243.97
2023-10-04T13:16:37.422Z,100238.34
2023-10-04T13:18:39.971Z,100238.47
2023-10-04T13:20:42.560Z,100244.72
2023-10-04T13:22:46.522Z,100238.81
2023-10-04T13:24:49.094Z,100251.69
2023-10-04T13:26:51.966Z,100250.69
2023-10-04T13:28:54.538Z,100246.31
2023-10-04T13:30:57.314Z,100249.81
2023-10-04T13:33:00.054Z,100247.25
2023-10-04T13:35:03.421Z,100250.28
2023-10-04T13:37:06.396Z,100238.88
2023-10-04T13:39:09.169Z,100252.34
2023-10-04T13:41:15.407Z,100254.06
2023-10-04T13:43:18.116Z,100246.03
2023-10-04T13:45:20.883Z,100252.13
2023-10-04T13:47:23.509Z,100260.97
2023-10-04T13:49:27.913Z,100248.56
2023-10-04T13:51:30.435Z,100252.31
2023-10-04T13:53:32.954Z,100244.03
2023-10-04T13:55:37.936Z,100252.91
2023-10-04T13:57:41.037Z,100249.53
2023-10-04T13:59:46.854Z,100259.97
2023-10-04T14:01:50.573Z,100263.00
2023-10-04T14:03:53.442Z,100255.75
2023-10-04T14:06:02.174Z,100252.53
2023-10-04T14:08:11.019Z,100258.50
2023-10-04T14:10:14.012Z,100267.75
2023-10-04T14:12:17.936Z,100274.13
2023-10-04T14:14:23.112Z,100275.47
2023-10-04T14:16:25.847Z,100265.88
2023-10-04T14:18:30.131Z,100264.72
2023-10-04T14:20:33.497Z,100262.38
2023-10-04T14:22:36.060Z,100262.66
2023-10-04T14:24:38.538Z,100267.44
2023-10-04T14:26:41.282Z,100262.94
2023-10-04T14:28:43.787Z,100269.72
2023-10-04T14:30:48.666Z,100265.63
2023-10-04T14:32:53.242Z,100262.75
2023-10-04T14:34:57.449Z,100256.66
2023-10-04T14:37:02.477Z,100258.81
2023-10-04T14:39:09.566Z,100259.56
2023-10-04T14:41:12.234Z,100268.31
2023-10-04T14:43:14.798Z,100271.47
2023-10-04T14:45:18.713Z,100273.00
2023-10-04T14:47:21.172Z,100266.13
2023-10-04T14:49:23.797Z,100269.91
2023-10-04T14:51:26.728Z,100272.94
2023-10-04T14:53:29.546Z,100281.78
2023-10-04T14:55:33.155Z,100284.69
2023-10-04T14:57:43.375Z,100290.09
2023-10-04T14:59:45.806Z,100291.50
2023-10-04T15:01:48.300Z,100295.97
2023-10-04T15:03:52.553Z,100299.19
2023-10-04T15:05:55.532Z,100304.81
2023-10-04T15:07:59.757Z,100304.22
2023-10-04T15:10:04.343Z,100307.56
2023-10-04T15:12:06.896Z,100305.84
2023-10-04T15:14:10.976Z,100306.69
2023-10-04T15:16:13.664Z,100308.59
2023-10-04T15:18:16.348Z,100321.47
2023-10-04T15:20:21.489Z,100314.56
2023-10-04T15:22:41.803Z,100315.81
2023-10-04T15:24:44.375Z,100321.47
2023-10-04T15:26:48.577Z,100316.75
2023-10-04T15:28:51.640Z,100323.13
2023-10-04T15:30:56.227Z,100320.50
2023-10-04T15:32:58.908Z,100324.88
2023-10-04T15:35:02.732Z,100330.91
2023-10-04T15:37:05.669Z,100334.78
2023-10-04T15:39:27.892Z,100337.53
2023-10-04T15:41:30.579Z,100344.28
2023-10-04T15:43:33.159Z,100349.66
2023-10-04T15:45:36.279Z,100359.50
2023-10-04T15:47:41.222Z,100365.25
2023-10-04T15:49:44.725Z,100366.13
2023-10-04T15:51:47.778Z,100374.38
2023-10-04T15:53:50.928Z,100371.38
2023-10-04T15:55:53.603Z,100372.13
2023-10-04T15:57:56.327Z,100374.13
2023-10-04T16:00:01.345Z,100367.16
2023-10-04T16:02:12.615Z,100372.66
2023-10-04T16:04:15.656Z,100372.91
2023-10-04T16:06:18.472Z,100381.41
2023-10-04T16:08:22.497Z,100385.41
2023-10-04T16:10:27.665Z,100375.66
2023-10-04T16:12:31.023Z,100385.38
2023-10-04T16:14:33.545Z,100384.78
2023-10-04T16:16:38.340Z,100382.13
2023-10-04T16:18:42.028Z,100386.16
2023-10-04T16:20:48.481Z,100384.91
2023-10-04T16:23:09.948Z,100388.88
2023-10-04T16:25:15.368Z,100385.66
2023-10-04T16:27:17.846Z,100391.28
2023-10-04T16:29:20.398Z,100385.28
2023-10-04T16:31:24.104Z,100388.28
2023-10-04T16:33:26.852Z,100385.06
2023-10-04T16:35:29.727Z,100384.91
2023-10-04T16:37:32.509Z,100385.78
2023-10-04T16:39:35.263Z,100387.66
2023-10-04T16:41:40.432Z,100385.03
2023-10-04T16:43:43.463Z,100382.53
2023-10-04T16:45:46.165Z,100379.16
2023-10-04T16:47:50.106Z,100382.38
2023-10-04T16:49:52.998Z,100376.03
2023-10-04T16:51:55.422Z,100367.25
2023-10-04T16:53:58.270Z,100365.03
2023-10-04T16:56:00.731Z,100363.50
2023-10-04T16:58:03.371Z,100368.38
2023-10-04T17:00:11.795Z,100368.63
2023-10-04T17:02:14.493Z,100363.50
2023-10-04T17:04:16.954Z,100351.16
2023-10-04T17:06:19.894Z,100358.72
2023-10-04T17:08:22.515Z,100355.72
2023-10-04T17:10:25.237Z,100362.22
2023-10-04T17:12:27.822Z,100357.94
2023-10-04T17:14:33.341Z,100353.69
2023-10-04T17:16:36.289Z,100345.84
2023-10-04T17:18:38.979Z,100361.97
2023-10-04T17:20:41.442Z,100373.44
2023-10-04T17:22:48.313Z,100379.03
2023-10-04T17:24:54.057Z,100376.84
2023-10-04T17:26:57.113Z,100377.31
2023-10-04T17:29:01.980Z,100394.09
2023-10-04T17:31:04.889Z,100406.28
2023-10-04T17:33:07.583Z,100411.13
2023-10-04T17:35:10.532Z,100415.09
2023-10-04T17:37:13.086Z,100419.81
2023-10-04T17:39:16.056Z,100434.84
2023-10-04T17:41:18.377Z,100423.13
2023-10-04T17:43:21.017Z,100418.06
2023-10-04T17:45:23.430Z,100408.59
2023-10-04T17:47:26.188Z,100408.16
2023-10-04T17:49:29.173Z,100413.97
2023-10-04T17:51:32.230Z,100415.94
2023-10-04T17:53:35.247Z,100408.94
2023-10-04T17:55:38.855Z,100422.88
2023-10-04T17:57:42.199Z,100434.78
2023-10-04T17:59:45.177Z,100417.63
2023-10-04T18:01:47.712Z,100421.31
2023-10-04T18:03:52.618Z,100431.41
2023-10-04T18:06:00.393Z,100431.63
2023-10-04T18:08:04.562Z,100434.38
2023-10-04T18:10:09.830Z,100426.22
2023-10-04T18:12:12.604Z,100430.78
2023-10-04T18:14:15.256Z,100420.88
2023-10-04T18:16:18.278Z,100423.81
2023-10-04T18:18:20.707Z,100418.69
2023-10-04T18:20:23.975Z,100412.47
2023-10-04T18:22:26.448Z,100411.69
2023-10-04T18:24:29.388Z,100400.84
2023-10-04T18:26:32.413Z,100383.69
2023-10-04T18:28:36.796Z,100372.94
2023-10-04T18:30:39.742Z,100384.56
2023-10-04T18:32:42.309Z,100393.53
2023-10-04T18:34:47.448Z,100398.88
2023-10-04T18:36:50.082Z,100408.19
2023-10-04T18:38:54.845Z,100423.72
2023-10-04T18:41:01.804Z,100435.53
2023-10-04T18:43:04.504Z,100438.19
2023-10-04T18:45:10.293Z,100443.53
2023-10-04T18:47:12.966Z,100445.84
2023-10-04T18:49:16.416Z,100446.16
2023-10-04T18:51:19.009Z,100436.97
2023-10-04T18:53:24.275Z,100444.63
2023-10-04T18:55:26.795Z,100444.19
2023-10-04T18:57:33.000Z,100442.00
2023-10-04T18:59:39.708Z,100441.88
2023-10-04T19:01:44.510Z,100457.34
2023-10-04T19:03:47.211Z,100450.09
2023-10-04T19:05:49.933Z,100461.16
2023-10-04T19:07:57.355Z,100466.72
2023-10-04T19:10:03.006Z,100455.00
2023-10-04T19:12:05.935Z,100447.72
2023-10-04T19:14:09.535Z,100444.44
2023-10-04T19:16:12.336Z,100440.91
2023-10-04T19:18:15.024Z,100442.88
2023-10-04T19:20:18.141Z,100454.03
2023-10-04T19:22:23.852Z,100458.72
2023-10-04T19:24:26.644Z,100453.47
2023-10-04T19:26:29.377Z,100453.34
2023-10-04T19:28:33.822Z,100447.25
2023-10-04T19:30:38.403Z,100450.97
2023-10-04T19:32:43.677Z,100453.69
2023-10-04T19:34:46.653Z,100455.34
2023-10-04T19:36:50.577Z,100451.84
2023-10-04T19:38:53.241Z,100459.59
2023-10-04T19:40:57.776Z,100466.03
2023-10-04T19:43:00.275Z,100467.91
2023-10-04T19:45:03.040Z,100462.44
2023-10-04T19:47:06.497Z,100472.59
2023-10-04T19:49:10.439Z,100462.44
2023-10-04T19:51:13.535Z,100462.97
2023-10-04T19:53:16.078Z,100463.38
2023-10-04T19:55:20.060Z,100463.81
2023-10-04T19:57:23.393Z,100469.94
2023-10-04T19:59:26.503Z,100468.06
2023-10-04T20:01:29.212Z,100469.84
2023-10-04T20:03:33.278Z,100475.00
2023-10-04T20:05:38.323Z,100473.00
2023-10-04T20:07:43.839Z,100468.53
2023-10-04T20:09:47.557Z,100466.22
2023-10-04T20:11:51.436Z,100476.19
2023-10-04T20:13:54.642Z,100470.63
2023-10-04T20:15:59.382Z,100469.84
2023-10-04T20:18:02.144Z,100469.94
2023-10-04T20:20:05.007Z,100471.69
2023-10-04T20:22:07.486Z,100476.47
2023-10-04T20:24:10.571Z,100463.88
2023-10-04T20:26:13.452Z,100465.81
2023-10-04T20:28:16.104Z,100467.91
2023-10-04T20:30:19.616Z,100465.38
2023-10-04T20:32:22.531Z,100463.47
2023-10-04T20:34:25.117Z,100467.84
2023-10-04T20:36:27.730Z,100462.34
2023-10-04T20:38:32.942Z,100468.59
2023-10-04T20:40:35.388Z,100464.31
2023-10-04T20:42:39.123Z,100467.25
2023-10-04T20:44:43.019Z,100483.06
2023-10-04T20:46:45.642Z,100478.59
2023-10-04T20:48:48.380Z,100484.13
2023-10-04T20:50:52.390Z,100483.47
2023-10-04T20:52:54.828Z,100481.03
2023-10-04T20:54:57.465Z,100481.75
2023-10-04T20:57:00.834Z,100478.03
2023-10-04T20:59:05.468Z,100477.19
2023-10-04T21:01:08.239Z,100480.22
2023-10-04T21:03:10.930Z,100477.84
2023-10-04T21:05:14.038Z,100481.28
2023-10-04T21:07:16.653Z,100481.78
2023-10-04T21:09:22.554Z,100475.53
2023-10-04T21:11:24.971Z,100477.47
2023-10-04T21:13:27.576Z,100476.31
2023-10-04T21:15:30.293Z,100482.84
2023-10-04T21:17:33.076Z,100482.63
2023-10-04T21:19:37.390Z,100485.75
2023-10-04T21:21:39.834Z,100495.03
2023-10-04T21:23:42.511Z,100497.03
2023-10-04T21:25:45.294Z,100496.19
2023-10-04T21:27:47.860Z,100495.59
2023-10-04T21:29:51.574Z,100493.25
2023-10-04T21:31:55.783Z,100487.09
2023-10-04T21:34:09.094Z,100484.56
2023-10-04T21:36:13.946Z,100495.06
2023-10-04T21:38:23.044Z,100498.97
2023-10-04T21:40:29.631Z,100494.75
2023-10-04T21:42:32.820Z,100493.09
2023-10-04T21:44:39.624Z,100499.13
2023-10-04T21:46:42.028Z,100502.28
2023-10-04T21:48:46.100Z,100504.16
2023-10-04T21:50:53.450Z,100499.75
2023-10-04T21:52:56.252Z,100497.38
2023-10-04T21:55:00.393Z,100505.56
2023-10-04T21:57:03.528Z,100500.31
2023-10-04T21:59:08.059Z,100496.28
2023-10-04T22:01:11.414Z,100498.41
2023-10-04T22:03:15.124Z,100494.91
2023-10-04T22:05:19.090Z,100492.25
2023-10-04T22:07:23.446Z,100482.34
2023-10-04T22:09:25.932Z,100483.59
2023-10-04T22:11:28.722Z,100480.75
2023-10-04T22:13:32.536Z,100479.13
2023-10-04T22:15:37.562Z,100479.19
2023-10-04T22:17:43.150Z,100479.38
2023-10-04T22:19:46.316Z,100477.25
2023-10-04T22:21:48.760Z,100481.66
2023-10-04T22:23:51.268Z,100485.34
2023-10-04T22:25:54.561Z,100482.09
2023-10-04T22:27:57.113Z,100476.66
2023-10-04T22:30:00.081Z,100468.59
2023-10-04T22:32:03.415Z,100471.47
2023-10-04T22:34:07.639Z,100469.91
2023-10-04T22:36:12.088Z,100467.38
2023-10-04T22:38:17.054Z,100462.06
2023-10-04T22:40:20.699Z,100464.56
2023-10-04T22:42:23.272Z,100465.75
2023-10-04T22:44:27.094Z,100474.09
2023-10-04T22:46:41.355Z,100484.09
2023-10-04T22:48:44.594Z,100478.66
2023-10-04T22:50:48.050Z,100477.53
2023-10-04T22:52:52.032Z,100481.06
2023-10-04T22:54:54.537Z,100484.59
2023-10-04T22:56:57.001Z,100486.34
2023-10-04T22:58:59.366Z,100491.09
2023-10-04T23:01:12.726Z,100493.84
2023-10-04T23:03:17.026Z,100491.38
2023-10-04T23:05:23.355Z,100494.53
2023-10-04T23:07:26.084Z,100496.31
2023-10-04T23:09:32.414Z,100492.69
2023-10-04T23:11:37.009Z,100496.31
2023-10-04T23:13:44.742Z,100497.38
2023-10-04T23:15:48.245Z,100486.63
2023-10-04T23:17:53.832Z,100482.78
2023-10-04T23:19:59.922Z,100498.06
2023-10-04T23:22:10.898Z,100484.81
2023-10-04T23:24:16.053Z,100475.06
2023-10-04T23:26:24.046Z,100476.47
2023-10-04T23:28:26.566Z,100470.13
2023-10-04T23:30:29.041Z,100472.31
2023-10-04T23:32:32.280Z,100467.22
2023-10-04T23:34:34.817Z,100458.97
2023-10-04T23:36:41.882Z,100467.66
2023-10-04T23:38:46.503Z,100466.84